Time;durP1;ratioP1;P1;durP2;ratioP2;P2;SDS_P1;SDS_P2;PMS_P1;PMS_P2;Temp;Humidity;BMP_temperature;BMP_pressure;BME280_temperature;BME280_humidity;BME280_pressure;Samples;Min_cycle;Max_cycle;Signal;HPM_P1;HPM_P2
2022/02/05 00:00:31;;;;;;;6.13;2.35;;;3.20;99.90;;;;;;6217797;23;20141;-63
2022/02/05 00:13:44;;;;;;;8.35;2.70;;;3.10;99.90;;;;;;6217206;23;20132;-64
2022/02/05 00:43:09;;;;;;;6.90;2.22;;;2.90;99.90;;;;;;6216836;23;20633;-63
2022/02/05 00:45:39;;;;;;;5.20;1.67;;;2.90;99.90;;;;;;6216847;23;20144;-63
2022/02/05 00:48:06;;;;;;;5.50;1.90;;;2.90;99.90;;;;;;6216898;23;20152;-63
2022/02/05 00:50:34;;;;;;;8.10;1.80;;;2.90;99.90;;;;;;6217419;23;20156;-63
2022/02/05 00:53:09;;;;;;;7.78;1.90;;;2.90;99.90;;;;;;6217211;23;20155;-65
2022/02/05 00:55:39;;;;;;;6.20;1.95;;;2.90;99.90;;;;;;6216767;23;20439;-64
2022/02/05 00:58:05;;;;;;;7.72;1.70;;;2.80;99.90;;;;;;6217086;23;20207;-63
2022/02/05 01:00:33;;;;;;;4.72;2.00;;;2.80;99.90;;;;;;6216658;23;20550;-64
2022/02/05 01:02:59;;;;;;;4.00;1.33;;;2.80;99.90;;;;;;6216830;23;20644;-65
2022/02/05 01:05:24;;;;;;;10.68;2.03;;;2.80;99.90;;;;;;6215507;23;20203;-65
2022/02/05 01:07:50;;;;;;;12.02;2.10;;;2.80;99.90;;;;;;6216773;23;20275;-65
2022/02/05 01:10:16;;;;;;;6.22;1.75;;;2.80;99.90;;;;;;6217157;23;20152;-64
2022/02/05 01:12:48;;;;;;;5.82;1.73;;;2.80;99.90;;;;;;6216919;23;20545;-64
2022/02/05 01:15:16;;;;;;;8.65;2.17;;;2.80;99.90;;;;;;6216733;23;20437;-64
2022/02/05 01:17:48;;;;;;;8.48;1.67;;;2.90;99.90;;;;;;6216951;23;20152;-64
2022/02/05 01:23:02;;;;;;;4.22;1.83;;;2.90;99.90;;;;;;6216554;23;20207;-64
2022/02/05 01:25:34;;;;;;;5.07;1.50;;;3.00;99.90;;;;;;6216840;23;20172;-63
2022/02/05 01:28:07;;;;;;;4.55;1.17;;;3.00;99.90;;;;;;6216848;23;20537;-64
2022/02/05 01:30:36;;;;;;;8.23;1.45;;;3.10;99.90;;;;;;6216672;23;20446;-64
2022/02/05 01:34:10;;;;;;;4.95;1.60;;;3.10;99.90;;;;;;6216848;23;20141;-64
2022/02/05 01:36:32;;;;;;;7.95;1.13;;;3.10;99.90;;;;;;6209159;23;20145;-64
2022/02/05 01:51:02;;;;;;;6.40;1.50;;;3.20;99.90;;;;;;6207323;23;20235;-63
2022/02/05 01:53:13;;;;;;;5.18;1.17;;;3.20;99.90;;;;;;6215765;23;20153;-63
2022/02/05 02:11:57;;;;;;;4.90;1.50;;;3.40;99.90;;;;;;6216267;23;20136;-63
2022/02/05 02:22:37;;;;;;;7.43;2.28;;;3.50;99.90;;;;;;6216133;23;20207;-63
2022/02/05 02:25:42;;;;;;;6.57;2.05;;;3.50;99.90;;;;;;6214898;23;20256;-63
2022/02/05 02:28:16;;;;;;;9.68;1.42;;;3.50;99.90;;;;;;6215916;23;20232;-63
2022/02/05 02:30:52;;;;;;;6.40;1.83;;;3.50;99.90;;;;;;6215962;23;20453;-63
2022/02/05 02:33:28;;;;;;;4.38;1.45;;;3.50;99.90;;;;;;6216488;23;20140;-63
2022/02/05 02:35:53;;;;;;;7.93;2.15;;;3.50;99.90;;;;;;6216995;23;20129;-63
2022/02/05 02:38:23;;;;;;;3.47;1.75;;;3.50;99.90;;;;;;6216925;23;20144;-63
2022/02/05 02:43:27;;;;;;;8.15;1.75;;;3.40;99.90;;;;;;6216361;23;20441;-63
2022/02/05 02:45:52;;;;;;;10.45;2.13;;;3.40;99.90;;;;;;6216779;23;20193;-63
2022/02/05 02:48:18;;;;;;;7.97;2.30;;;3.40;99.90;;;;;;6218792;23;20232;-62
2022/02/05 02:56:33;;;;;;;5.75;1.88;;;3.50;99.90;;;;;;6216678;23;20588;-62
2022/02/05 02:59:08;;;;;;;6.65;1.95;;;3.50;99.90;;;;;;6216409;23;20411;-61
2022/02/05 03:01:37;;;;;;;4.93;1.73;;;3.50;99.90;;;;;;6216557;23;20556;-62
2022/02/05 03:04:03;;;;;;;6.13;1.92;;;3.40;99.90;;;;;;6216881;23;20175;-62
2022/02/05 03:06:28;;;;;;;7.10;1.88;;;3.40;99.90;;;;;;6216552;23;20172;-62
2022/02/05 03:08:54;;;;;;;7.38;1.90;;;3.40;99.90;;;;;;6216476;23;20228;-62
2022/02/05 03:11:20;;;;;;;7.25;1.88;;;3.40;99.90;;;;;;6216541;23;20216;-63
2022/02/05 03:13:46;;;;;;;6.78;1.85;;;3.40;99.90;;;;;;6216297;23;20649;-63
2022/02/05 03:16:21;;;;;;;6.90;2.00;;;3.30;99.90;;;;;;6216834;23;20148;-62
2022/02/05 03:19:00;;;;;;;5.95;1.80;;;3.30;99.90;;;;;;6217201;23;20143;-62
2022/02/05 03:21:26;;;;;;;4.90;1.50;;;3.30;99.90;;;;;;6217177;23;20129;-62
2022/02/05 03:23:51;;;;;;;6.50;1.67;;;3.30;99.90;;;;;;6216808;23;20168;-61
2022/02/05 03:26:17;;;;;;;5.53;1.48;;;3.20;99.90;;;;;;6216012;23;20236;-62
2022/02/05 03:28:42;;;;;;;5.35;1.58;;;3.20;99.90;;;;;;6215911;23;20194;-64
2022/02/05 03:31:08;;;;;;;5.57;1.60;;;3.20;99.90;;;;;;6217040;23;20163;-63
2022/02/05 03:33:33;;;;;;;4.32;1.63;;;3.10;99.90;;;;;;6217968;23;20153;-62
2022/02/05 03:35:59;;;;;;;6.15;1.52;;;3.10;99.90;;;;;;6217891;23;20243;-63
2022/02/05 03:38:24;;;;;;;7.28;1.70;;;3.10;99.90;;;;;;6217576;23;20149;-63
2022/02/05 03:40:50;;;;;;;6.82;1.88;;;3.10;99.90;;;;;;6217711;23;20141;-63
2022/02/05 03:43:15;;;;;;;3.97;1.65;;;3.10;99.90;;;;;;6217386;23;20145;-63
2022/02/05 03:45:41;;;;;;;2.63;1.13;;;3.20;99.90;;;;;;6218046;23;20149;-63
2022/02/05 03:48:06;;;;;;;3.05;1.15;;;3.10;99.90;;;;;;6217442;23;20532;-63
2022/02/05 03:50:33;;;;;;;2.38;1.02;;;3.10;99.90;;;;;;6217876;23;20152;-63
2022/02/05 03:52:58;;;;;;;4.13;1.35;;;3.20;99.90;;;;;;6217431;23;20137;-63
2022/02/05 03:55:24;;;;;;;3.10;1.20;;;3.20;99.90;;;;;;6217866;23;20588;-63
2022/02/05 03:57:50;;;;;;;3.05;1.23;;;3.30;99.90;;;;;;6217777;23;20174;-63
2022/02/05 04:00:16;;;;;;;3.22;1.30;;;3.30;99.90;;;;;;6217706;23;20561;-63
2022/02/05 04:02:42;;;;;;;1.45;0.90;;;3.30;99.90;;;;;;6217281;23;20631;-63
2022/02/05 04:05:08;;;;;;;2.72;0.90;;;3.30;99.90;;;;;;6217792;23;20172;-63
2022/02/05 04:07:38;;;;;;;2.42;0.65;;;3.30;99.90;;;;;;6217724;23;20160;-62
2022/02/05 04:10:06;;;;;;;1.80;1.10;;;3.30;99.90;;;;;;6217661;23;20164;-62
2022/02/05 04:18:00;;;;;;;2.28;0.82;;;3.30;99.90;;;;;;6217145;23;20168;-62
2022/02/05 04:20:27;;;;;;;1.33;0.85;;;3.20;99.90;;;;;;6217314;23;20137;-63
2022/02/05 04:22:53;;;;;;;1.60;0.90;;;3.20;99.90;;;;;;6217131;23;20155;-62
2022/02/05 04:25:18;;;;;;;2.45;0.52;;;3.20;99.90;;;;;;6217074;23;20243;-62
2022/02/05 04:27:44;;;;;;;2.55;0.68;;;3.20;99.90;;;;;;6217089;23;20171;-62
2022/02/05 04:30:10;;;;;;;1.35;0.63;;;3.10;99.90;;;;;;6217128;23;20550;-62
2022/02/05 04:32:35;;;;;;;2.30;0.60;;;3.10;99.90;;;;;;6217036;23;20157;-62
2022/02/05 04:35:01;;;;;;;1.00;0.50;;;3.00;99.90;;;;;;6217293;23;20153;-62
2022/02/05 04:37:28;;;;;;;2.80;0.50;;;3.00;99.90;;;;;;6217040;23;20276;-62
2022/02/05 04:40:08;;;;;;;1.23;0.60;;;2.90;99.90;;;;;;6216996;23;20145;-62
2022/02/05 04:42:49;;;;;;;4.18;0.55;;;2.90;99.90;;;;;;6217286;23;20126;-62
2022/02/05 04:45:37;;;;;;;0.93;0.40;;;2.80;99.90;;;;;;6217331;23;20161;-62
2022/02/05 04:48:29;;;;;;;3.85;0.35;;;2.80;99.90;;;;;;6217233;23;20191;-62
2022/02/05 04:51:31;;;;;;;4.03;0.55;;;2.70;99.90;;;;;;6216819;23;20148;-62
2022/02/05 04:59:21;;;;;;;1.08;0.30;;;2.50;99.90;;;;;;6217484;23;20143;-62
2022/02/05 05:04:41;;;;;;;0.15;0.15;;;2.40;99.90;;;;;;6216639;23;20196;-62
2022/02/05 05:12:48;;;;;;;0.38;0.30;;;2.20;99.90;;;;;;6216929;23;20496;-62
2022/02/05 05:15:27;;;;;;;1.17;0.20;;;2.10;99.90;;;;;;6217039;23;20148;-63
2022/02/05 05:20:40;;;;;;;0.32;0.30;;;2.10;99.90;;;;;;6216809;23;20151;-62
2022/02/05 05:23:06;;;;;;;1.27;0.75;;;2.00;99.90;;;;;;6217081;23;20223;-62
2022/02/05 05:25:32;;;;;;;0.43;0.22;;;2.10;99.90;;;;;;6216664;23;20168;-61
2022/02/05 05:27:57;;;;;;;0.85;0.30;;;2.10;99.90;;;;;;6216576;23;20425;-62
2022/02/05 05:30:23;;;;;;;1.27;0.30;;;2.10;99.90;;;;;;6216613;23;20145;-63
2022/02/05 05:32:48;;;;;;;0.35;0.20;;;2.10;99.90;;;;;;6216540;23;20129;-63
2022/02/05 05:35:14;;;;;;;1.30;0.40;;;2.10;99.90;;;;;;6216479;23;20141;-62
2022/02/05 05:37:39;;;;;;;0.60;0.40;;;2.10;99.90;;;;;;6216431;23;20145;-62
2022/02/05 05:40:07;;;;;;;2.53;0.43;;;2.10;99.90;;;;;;6216654;23;20501;-62
2022/02/05 05:42:40;;;;;;;2.92;0.30;;;2.10;99.90;;;;;;6216739;23;20166;-62
2022/02/05 05:53:19;;;;;;;1.98;0.40;;;2.10;99.90;;;;;;6183581;23;20153;-63
2022/02/05 05:55:47;;;;;;;2.92;0.60;;;2.10;99.90;;;;;;6183926;23;20152;-62
2022/02/05 05:58:14;;;;;;;0.30;0.30;;;2.20;99.90;;;;;;6183956;23;20155;-62
2022/02/05 06:00:40;;;;;;;0.43;0.43;;;2.20;99.90;;;;;;6183939;23;20504;-62
2022/02/05 06:03:05;;;;;;;1.35;0.40;;;2.20;99.90;;;;;;6183951;23;20142;-62
2022/02/05 06:05:31;;;;;;;4.32;0.50;;;2.20;99.90;;;;;;6183548;23;20173;-62
2022/02/05 06:07:56;;;;;;;1.88;0.60;;;2.20;99.90;;;;;;6183845;23;20153;-62
2022/02/05 06:10:22;;;;;;;0.95;0.55;;;2.30;99.90;;;;;;6184144;23;20427;-63
2022/02/05 06:12:47;;;;;;;1.67;0.70;;;2.30;99.90;;;;;;6183977;23;20149;-63
2022/02/05 06:15:13;;;;;;;1.50;0.75;;;2.30;99.90;;;;;;6183832;23;20149;-63
2022/02/05 06:17:39;;;;;;;1.55;0.50;;;2.30;99.90;;;;;;6183729;23;20485;-63
2022/02/05 06:20:06;;;;;;;0.80;0.52;;;2.30;99.90;;;;;;6183703;23;20586;-63
2022/02/05 06:22:32;;;;;;;2.28;0.47;;;2.30;99.90;;;;;;6183747;23;20464;-63
2022/02/05 06:24:57;;;;;;;4.05;0.70;;;2.40;99.90;;;;;;6211800;23;20165;-63
2022/02/05 06:27:23;;;;;;;4.63;0.80;;;2.40;99.90;;;;;;6216435;23;20185;-63
2022/02/05 06:29:48;;;;;;;3.90;0.80;;;2.40;99.90;;;;;;6216339;23;20141;-63
2022/02/05 06:32:15;;;;;;;3.78;0.90;;;2.40;99.90;;;;;;6216032;23;20581;-63
2022/02/05 06:34:41;;;;;;;1.88;0.63;;;2.50;99.90;;;;;;6216608;23;20141;-62
2022/02/05 06:37:07;;;;;;;5.25;1.17;;;2.50;99.90;;;;;;6216188;23;20145;-63
2022/02/05 06:39:32;;;;;;;1.83;0.80;;;2.60;99.90;;;;;;6216100;23;20156;-63
2022/02/05 06:41:58;;;;;;;1.90;0.90;;;2.60;99.90;;;;;;6216087;23;20152;-63
2022/02/05 06:44:23;;;;;;;5.15;1.05;;;2.60;99.90;;;;;;6215933;23;20172;-63
2022/02/05 06:46:49;;;;;;;3.80;0.90;;;2.60;99.90;;;;;;6216102;23;20240;-63
2022/02/05 06:49:14;;;;;;;2.55;1.20;;;2.70;99.90;;;;;;6216160;23;20168;-63
2022/02/05 06:51:40;;;;;;;4.00;1.15;;;2.70;99.90;;;;;;6216369;23;20579;-62
2022/02/05 06:54:05;;;;;;;7.05;1.15;;;2.60;99.90;;;;;;6216103;23;20437;-62
2022/02/05 06:56:31;;;;;;;2.78;0.88;;;2.70;99.90;;;;;;6216542;23;20194;-62
2022/02/05 06:58:56;;;;;;;3.58;0.88;;;2.70;99.90;;;;;;6216071;23;20226;-62
2022/02/05 07:01:22;;;;;;;4.82;1.02;;;2.70;99.90;;;;;;6216321;23;20148;-62
2022/02/05 07:03:47;;;;;;;3.58;0.90;;;2.70;99.90;;;;;;6216399;23;20165;-62
2022/02/05 07:06:13;;;;;;;2.17;0.90;;;2.60;99.90;;;;;;6218088;23;20141;-62
2022/02/05 07:08:41;;;;;;;4.28;0.82;;;2.70;99.90;;;;;;6218216;23;20334;-62
2022/02/05 07:11:07;;;;;;;6.55;1.13;;;2.70;99.90;;;;;;6217959;23;20137;-62
2022/02/05 07:13:32;;;;;;;2.97;1.10;;;2.70;99.90;;;;;;6217888;23;20359;-63
2022/02/05 07:16:16;;;;;;;5.82;0.90;;;2.60;99.90;;;;;;6218340;23;20224;-63
2022/02/05 07:21:21;;;;;;;4.15;0.85;;;2.60;99.90;;;;;;6218263;23;20135;-62
2022/02/05 07:29:19;;;;;;;3.35;1.00;;;2.40;99.90;;;;;;6217741;23;20183;-62
2022/02/05 07:31:48;;;;;;;2.83;0.80;;;2.40;99.90;;;;;;6217653;23;20468;-61
2022/02/05 07:34:16;;;;;;;3.35;0.88;;;2.30;99.90;;;;;;6217785;23;20145;-63
2022/02/05 07:36:42;;;;;;;4.85;0.90;;;2.30;99.90;;;;;;6217636;23;20445;-63
2022/02/05 07:39:08;;;;;;;3.63;0.75;;;2.30;99.90;;;;;;6218074;23;20145;-63
2022/02/05 07:41:36;;;;;;;3.83;0.80;;;2.30;99.90;;;;;;6217779;23;20149;-63
2022/02/05 07:44:02;;;;;;;4.80;0.90;;;2.30;99.90;;;;;;6217912;23;20227;-63
2022/02/05 07:46:28;;;;;;;4.82;0.98;;;2.30;99.90;;;;;;6217855;23;20145;-63
2022/02/05 07:48:53;;;;;;;7.18;1.15;;;2.40;99.90;;;;;;6217554;23;20554;-63
2022/02/05 07:51:19;;;;;;;5.68;0.90;;;2.40;99.90;;;;;;6217641;23;20148;-63
2022/02/05 07:53:45;;;;;;;5.32;1.10;;;2.40;99.90;;;;;;6217816;23;20199;-63
2022/02/05 07:56:11;;;;;;;6.00;0.70;;;2.40;99.90;;;;;;6218262;23;20144;-60
2022/02/05 07:58:36;;;;;;;6.35;1.10;;;2.50;99.90;;;;;;6219288;23;20163;-61
2022/02/05 08:01:03;;;;;;;3.85;1.02;;;2.50;99.90;;;;;;6221808;23;20141;-63
2022/02/05 08:03:28;;;;;;;6.20;1.00;;;2.50;99.90;;;;;;6223900;23;20265;-63
2022/02/05 08:05:54;;;;;;;7.00;1.20;;;2.50;99.90;;;;;;6234187;23;20145;-62
2022/02/05 08:08:24;;;;;;;4.55;1.10;;;2.50;99.90;;;;;;6232419;23;20145;-63
2022/02/05 08:11:09;;;;;;;4.00;1.13;;;2.50;99.90;;;;;;6226592;23;20160;-63
2022/02/05 08:13:35;;;;;;;2.92;0.93;;;2.60;99.90;;;;;;6229282;23;20125;-63
2022/02/05 08:16:23;;;;;;;7.05;1.08;;;2.50;99.90;;;;;;6229802;23;20180;-63
2022/02/05 08:18:49;;;;;;;5.78;1.20;;;2.60;99.90;;;;;;6227802;23;20129;-63
2022/02/05 08:21:14;;;;;;;5.50;1.20;;;2.60;99.90;;;;;;6225207;23;20279;-63
2022/02/05 08:23:40;;;;;;;6.45;1.13;;;2.70;99.90;;;;;;6228818;23;20155;-63
2022/02/05 08:26:06;;;;;;;3.15;0.98;;;2.70;99.90;;;;;;6231257;23;20141;-62
2022/02/05 08:28:32;;;;;;;5.68;1.17;;;2.80;99.90;;;;;;6226710;23;20558;-61
2022/02/05 08:30:58;;;;;;;8.77;1.33;;;2.80;99.90;;;;;;6225392;23;20161;-62
2022/02/05 08:33:24;;;;;;;5.15;1.33;;;2.80;99.90;;;;;;6228877;23;20173;-63
2022/02/05 08:35:50;;;;;;;3.75;1.40;;;2.80;99.90;;;;;;6232427;23;20149;-63
2022/02/05 08:38:17;;;;;;;5.68;1.20;;;2.90;99.90;;;;;;6233893;23;20159;-63
2022/02/05 08:40:42;;;;;;;4.07;1.05;;;2.90;99.90;;;;;;6228433;23;20141;-63
2022/02/05 08:43:08;;;;;;;6.32;1.25;;;3.00;99.90;;;;;;6228367;23;20145;-63
2022/02/05 08:45:33;;;;;;;2.75;0.82;;;3.00;99.90;;;;;;6230172;23;20253;-63
2022/02/05 08:47:59;;;;;;;6.82;1.25;;;3.10;99.90;;;;;;6230131;23;20137;-63
2022/02/05 08:50:26;;;;;;;6.75;1.20;;;3.10;99.90;;;;;;6229433;23;20242;-63
2022/02/05 08:52:54;;;;;;;4.78;0.98;;;3.10;99.90;;;;;;6228874;23;20184;-63
2022/02/05 08:55:21;;;;;;;4.25;1.20;;;3.20;99.90;;;;;;6229634;23;20145;-63
2022/02/05 08:57:47;;;;;;;5.95;1.40;;;3.20;99.90;;;;;;6230020;23;20232;-62
2022/02/05 09:00:15;;;;;;;7.47;0.80;;;3.30;99.90;;;;;;6219011;23;20149;-63
2022/02/05 09:02:54;;;;;;;6.45;1.15;;;3.30;99.90;;;;;;6217929;23;20160;-63
2022/02/05 09:05:40;;;;;;;5.88;1.00;;;3.30;99.90;;;;;;6217407;23;20227;-63
2022/02/05 09:08:17;;;;;;;3.55;0.73;;;3.40;99.90;;;;;;6216909;23;20212;-63
2022/02/05 09:11:03;;;;;;;7.95;1.42;;;3.40;99.90;;;;;;6217657;23;20438;-63
2022/02/05 09:13:53;;;;;;;4.22;0.95;;;3.50;99.90;;;;;;6217542;23;20183;-63
2022/02/05 09:16:19;;;;;;;4.55;1.10;;;3.50;99.90;;;;;;6216940;23;20530;-63
2022/02/05 09:18:45;;;;;;;8.20;1.10;;;3.60;99.90;;;;;;6217365;23;20195;-62
2022/02/05 09:21:11;;;;;;;6.30;1.10;;;3.60;99.90;;;;;;6217050;23;20141;-63
2022/02/05 09:23:44;;;;;;;5.10;0.90;;;3.70;99.90;;;;;;6217459;23;20173;-62
2022/02/05 09:26:12;;;;;;;3.30;0.88;;;3.70;99.90;;;;;;6216584;23;20550;-63
2022/02/05 09:28:42;;;;;;;3.03;0.95;;;3.70;99.90;;;;;;6216697;23;20419;-63
2022/02/05 09:33:35;;;;;;;6.72;1.20;;;3.80;99.90;;;;;;6216892;23;20144;-62
2022/02/05 09:36:01;;;;;;;4.85;0.98;;;3.80;99.90;;;;;;6216730;23;20145;-63
2022/02/05 09:38:27;;;;;;;5.75;1.08;;;3.90;99.90;;;;;;6216678;23;20159;-62
2022/02/05 09:40:52;;;;;;;5.70;1.45;;;3.90;99.90;;;;;;6216410;23;20630;-63
2022/02/05 09:43:26;;;;;;;5.35;1.10;;;3.90;99.90;;;;;;6216533;23;20198;-63
2022/02/05 09:45:52;;;;;;;6.78;1.35;;;3.90;99.90;;;;;;6217425;23;20157;-63
2022/02/05 09:48:19;;;;;;;5.28;1.25;;;3.90;99.90;;;;;;6217455;23;20142;-63
2022/02/05 09:50:46;;;;;;;3.38;1.10;;;3.90;99.90;;;;;;6216522;23;20144;-63
2022/02/05 09:53:16;;;;;;;5.35;1.00;;;3.90;99.90;;;;;;6216518;23;20137;-64
2022/02/05 09:55:43;;;;;;;2.10;0.80;;;3.90;99.90;;;;;;6217035;23;20140;-63
2022/02/05 09:58:09;;;;;;;6.95;1.20;;;3.90;99.90;;;;;;6216566;23;20160;-63
2022/02/05 10:00:35;;;;;;;6.25;1.20;;;3.90;99.90;;;;;;6216555;23;20149;-64
2022/02/05 10:03:03;;;;;;;5.43;1.30;;;4.00;99.90;;;;;;6216338;23;20560;-63
2022/02/05 10:05:31;;;;;;;7.75;1.13;;;4.00;99.90;;;;;;6216563;23;20176;-64
2022/02/05 10:07:59;;;;;;;4.43;1.30;;;4.10;99.90;;;;;;6216633;23;20145;-63
2022/02/05 10:10:42;;;;;;;5.82;1.45;;;4.20;99.90;;;;;;6215403;23;20493;-62
2022/02/05 10:13:19;;;;;;;8.32;1.08;;;4.30;99.90;;;;;;6216206;23;20438;-63
2022/02/05 10:15:51;;;;;;;9.25;1.45;;;4.40;99.90;;;;;;6216373;23;20129;-62
2022/02/05 10:18:24;;;;;;;10.15;1.27;;;4.40;99.90;;;;;;6216601;23;20167;-63
2022/02/05 10:20:50;;;;;;;6.53;1.30;;;4.50;99.90;;;;;;6217031;23;20227;-63
2022/02/05 10:23:16;;;;;;;5.85;1.48;;;4.60;99.90;;;;;;6216181;23;20564;-63
2022/02/05 10:25:41;;;;;;;6.07;1.27;;;4.60;99.90;;;;;;6216493;23;20222;-63
2022/02/05 10:28:11;;;;;;;4.20;1.38;;;4.70;99.90;;;;;;6216426;23;20140;-63
2022/02/05 10:30:40;;;;;;;4.47;1.50;;;4.70;99.90;;;;;;6216470;23;20180;-62
2022/02/05 10:33:32;;;;;;;5.80;1.70;;;4.80;99.90;;;;;;6217789;23;20508;-63
2022/02/05 10:36:06;;;;;;;5.88;1.20;;;4.90;99.90;;;;;;6216059;23;20156;-62
2022/02/05 10:44:16;;;;;;;7.88;1.60;;;5.00;99.90;;;;;;6219168;23;20508;-62
2022/02/05 10:46:44;;;;;;;9.77;2.08;;;5.10;99.90;;;;;;6218723;23;20152;-63
2022/02/05 10:49:41;;;;;;;9.75;2.03;;;5.20;99.90;;;;;;6218781;23;20159;-63
2022/02/05 10:52:06;;;;;;;9.13;1.90;;;5.20;99.90;;;;;;6218376;23;20125;-64
2022/02/05 10:54:46;;;;;;;7.88;1.90;;;5.20;99.90;;;;;;6219245;23;20179;-63
2022/02/05 10:57:23;;;;;;;11.25;1.77;;;5.30;99.90;;;;;;6218826;23;20160;-61
2022/02/05 11:05:40;;;;;;;7.53;1.40;;;5.40;99.90;;;;;;6218214;23;20172;-63
2022/02/05 11:08:06;;;;;;;10.20;1.80;;;5.60;99.90;;;;;;6218618;23;20125;-64
2022/02/05 11:13:54;;;;;;;8.18;1.83;;;5.80;99.90;;;;;;6218548;23;20168;-63
2022/02/05 11:16:47;;;;;;;8.50;1.65;;;5.90;99.90;;;;;;6217402;23;20227;-64
2022/02/05 11:19:11;;;;;;;8.02;1.42;;;5.90;99.90;;;;;;6217678;23;20145;-63
2022/02/05 11:21:37;;;;;;;5.63;1.38;;;5.90;99.90;;;;;;6218494;23;20195;-63
2022/02/05 11:24:05;;;;;;;5.72;1.63;;;5.90;99.90;;;;;;6216970;23;20238;-63
2022/02/05 11:26:31;;;;;;;6.72;1.30;;;5.90;99.90;;;;;;6218472;23;20165;-63
2022/02/05 11:29:03;;;;;;;6.13;1.52;;;6.00;99.90;;;;;;6217465;23;20395;-64
2022/02/05 11:31:39;;;;;;;10.50;1.55;;;6.00;99.90;;;;;;6217060;23;20180;-63
2022/02/05 11:34:22;;;;;;;10.93;2.00;;;6.00;99.90;;;;;;6216725;23;20129;-63
2022/02/05 11:37:07;;;;;;;8.05;1.60;;;6.00;99.90;;;;;;6216053;23;20218;-63
2022/02/05 11:40:02;;;;;;;6.75;1.42;;;6.10;99.90;;;;;;6216753;23;20152;-63
2022/02/05 11:42:28;;;;;;;6.00;1.52;;;6.20;99.90;;;;;;6215908;23;20450;-64
2022/02/05 11:44:59;;;;;;;6.40;1.17;;;6.20;99.90;;;;;;6216098;23;20169;-64
2022/02/05 11:47:29;;;;;;;6.30;1.35;;;6.20;99.90;;;;;;6216219;23;20145;-63
2022/02/05 11:49:56;;;;;;;9.38;1.80;;;6.20;99.90;;;;;;6217406;23;20161;-63
2022/02/05 11:52:36;;;;;;;11.15;1.88;;;6.20;99.90;;;;;;6216444;23;20145;-63
2022/02/05 11:55:32;;;;;;;6.95;1.58;;;6.20;99.90;;;;;;6216129;23;20420;-64
2022/02/05 11:58:00;;;;;;;6.15;1.48;;;6.10;99.90;;;;;;6215890;23;20445;-63
2022/02/05 12:00:31;;;;;;;8.68;1.55;;;6.10;99.90;;;;;;6216212;23;20149;-64
2022/02/05 12:05:31;;;;;;;8.43;1.52;;;6.10;99.90;;;;;;6216044;23;20507;-64
2022/02/05 12:08:05;;;;;;;8.50;1.63;;;6.10;99.90;;;;;;6215960;23;20133;-63
2022/02/05 12:10:34;;;;;;;11.85;1.67;;;6.10;99.90;;;;;;6216411;23;20144;-63
2022/02/05 12:13:23;;;;;;;8.10;1.50;;;6.10;99.90;;;;;;6215950;23;20229;-63
2022/02/05 12:16:10;;;;;;;8.88;2.15;;;6.00;99.90;;;;;;6216102;23;20129;-63
2022/02/05 12:19:16;;;;;;;7.15;1.50;;;6.00;99.90;;;;;;6215517;23;20160;-63
2022/02/05 12:21:56;;;;;;;10.73;1.95;;;6.00;99.90;;;;;;6215692;23;20439;-63
2022/02/05 12:24:38;;;;;;;6.53;1.65;;;6.00;99.90;;;;;;6216061;23;20168;-62
2022/02/05 12:27:49;;;;;;;6.57;1.75;;;6.00;99.90;;;;;;6215910;23;20226;-62
2022/02/05 12:30:29;;;;;;;5.22;1.42;;;6.00;99.90;;;;;;6172007;23;1012244;-62
2022/02/05 12:32:54;;;;;;;9.80;1.67;;;6.00;99.90;;;;;;6217692;23;20148;-62
2022/02/05 12:35:20;;;;;;;6.97;1.58;;;5.90;99.90;;;;;;6216948;23;20431;-62
2022/02/05 12:37:46;;;;;;;8.93;1.80;;;5.90;99.90;;;;;;6216975;23;20592;-62
2022/02/05 12:40:12;;;;;;;5.82;1.35;;;5.90;99.90;;;;;;6216873;23;20149;-62
2022/02/05 12:42:39;;;;;;;7.00;1.60;;;5.90;99.90;;;;;;6215788;23;20184;-61
2022/02/05 12:45:10;;;;;;;7.28;1.92;;;5.90;99.90;;;;;;6216976;23;20255;-62
2022/02/05 12:47:41;;;;;;;6.60;1.80;;;5.90;99.90;;;;;;6217009;23;20490;-63
2022/02/05 12:50:12;;;;;;;5.93;1.63;;;5.90;99.90;;;;;;6217012;23;20194;-63
2022/02/05 12:52:37;;;;;;;3.38;1.20;;;5.90;99.90;;;;;;6217486;23;20129;-63
2022/02/05 12:55:04;;;;;;;6.15;1.33;;;5.90;99.90;;;;;;6217954;23;20569;-62
2022/02/05 12:57:31;;;;;;;4.93;1.38;;;5.90;99.90;;;;;;6218979;23;20163;-64
2022/02/05 13:00:07;;;;;;;4.55;1.42;;;5.90;99.90;;;;;;6218002;23;20207;-61
2022/02/05 13:02:33;;;;;;;6.90;1.63;;;6.00;99.90;;;;;;6217167;23;20162;-63
2022/02/05 13:04:58;;;;;;;6.80;1.80;;;6.10;99.90;;;;;;6218152;23;20503;-64
2022/02/05 13:07:25;;;;;;;6.07;1.58;;;6.10;99.90;;;;;;6218022;23;20149;-63
2022/02/05 13:09:58;;;;;;;9.18;1.73;;;6.20;99.90;;;;;;6218455;23;20145;-62
2022/02/05 13:12:30;;;;;;;5.88;1.50;;;6.20;99.90;;;;;;6217747;23;20231;-64
2022/02/05 13:15:04;;;;;;;9.57;1.90;;;6.20;99.90;;;;;;6217832;23;20163;-62
2022/02/05 13:17:51;;;;;;;9.82;2.05;;;6.20;99.90;;;;;;6216844;23;20129;-62
2022/02/05 13:26:11;;;;;;;8.73;1.50;;;6.20;99.90;;;;;;6216396;23;20624;-63
2022/02/05 13:28:47;;;;;;;8.82;1.80;;;6.20;99.90;;;;;;6215792;23;20153;-63
2022/02/05 13:34:04;;;;;;;9.40;1.60;;;6.30;99.90;;;;;;6215776;23;20429;-62
2022/02/05 13:39:49;;;;;;;8.73;2.03;;;6.30;99.90;;;;;;6204084;23;20149;-64
2022/02/05 13:42:19;;;;;;;6.63;2.22;;;6.30;99.90;;;;;;6216884;23;20157;-63
2022/02/05 13:47:27;;;;;;;9.60;1.65;;;6.40;99.90;;;;;;6216910;23;20143;-62
2022/02/05 13:49:59;;;;;;;5.97;1.20;;;6.40;99.90;;;;;;6216534;23;20327;-62
2022/02/05 13:52:32;;;;;;;7.78;1.60;;;6.40;99.90;;;;;;6216792;23;20210;-64
2022/02/05 13:54:57;;;;;;;5.68;1.23;;;6.40;99.90;;;;;;6216384;23;20172;-62
2022/02/05 13:57:23;;;;;;;7.03;1.67;;;6.40;99.90;;;;;;6216455;23;20145;-62
2022/02/05 13:59:56;;;;;;;6.22;1.55;;;6.40;99.90;;;;;;6216196;23;20137;-63
2022/02/05 14:02:21;;;;;;;8.50;1.67;;;6.40;99.90;;;;;;6216856;23;20546;-62
2022/02/05 14:05:06;;;;;;;11.65;1.77;;;6.30;99.90;;;;;;6216121;23;20164;-62
2022/02/05 14:07:46;;;;;;;7.25;1.40;;;6.30;99.90;;;;;;6216711;23;20153;-63
2022/02/05 14:10:14;;;;;;;7.32;1.50;;;6.30;99.90;;;;;;6216184;23;20451;-63
2022/02/05 14:12:59;;;;;;;9.85;1.60;;;6.30;99.90;;;;;;6216555;23;20141;-63
2022/02/05 14:15:28;;;;;;;9.93;1.75;;;6.30;99.90;;;;;;6216225;23;20133;-63
2022/02/05 14:18:06;;;;;;;7.55;1.60;;;6.20;99.90;;;;;;6216463;23;20145;-63
2022/02/05 14:20:37;;;;;;;9.73;1.75;;;6.20;99.90;;;;;;6216317;23;20145;-63
2022/02/05 14:23:07;;;;;;;7.07;1.50;;;6.20;99.90;;;;;;6216196;23;20135;-63
2022/02/05 14:25:51;;;;;;;8.60;2.13;;;6.20;99.90;;;;;;6215881;23;20164;-63
2022/02/05 14:28:25;;;;;;;8.77;1.60;;;6.20;99.90;;;;;;6216510;23;20136;-63
2022/02/05 14:31:32;;;;;;;6.95;1.40;;;6.20;99.90;;;;;;6216223;23;20240;-63
2022/02/05 14:34:04;;;;;;;7.57;1.60;;;6.30;99.90;;;;;;6215881;23;20156;-63
2022/02/05 14:42:09;;;;;;;4.00;1.70;;;6.30;99.90;;;;;;6216100;23;20166;-64
2022/02/05 14:44:34;;;;;;;7.05;2.35;;;6.20;99.90;;;;;;6215748;23;20172;-62
2022/02/05 14:47:01;;;;;;;8.18;2.17;;;6.30;99.90;;;;;;6215930;23;20568;-62
2022/02/05 14:49:27;;;;;;;10.38;1.92;;;6.20;99.90;;;;;;6216059;23;20172;-63
2022/02/05 14:51:52;;;;;;;11.05;1.83;;;6.20;99.90;;;;;;6215992;23;20566;-64
2022/02/05 14:54:19;;;;;;;5.03;1.58;;;6.20;99.90;;;;;;6216295;23;20149;-63
2022/02/05 14:56:44;;;;;;;9.45;2.13;;;6.10;99.90;;;;;;6215926;23;20227;-63
2022/02/05 14:59:10;;;;;;;6.22;1.70;;;6.20;99.90;;;;;;6216007;23;20164;-63
2022/02/05 15:01:36;;;;;;;6.30;2.00;;;6.10;99.90;;;;;;6216135;23;20228;-62
2022/02/05 15:04:02;;;;;;;6.72;1.63;;;6.10;99.90;;;;;;6216082;23;20210;-62
2022/02/05 15:06:31;;;;;;;3.88;1.40;;;6.10;99.90;;;;;;6215846;23;20442;-63
2022/02/05 15:08:58;;;;;;;9.75;1.98;;;6.10;99.90;;;;;;6216154;23;20207;-63
2022/02/05 15:11:24;;;;;;;6.13;1.58;;;6.10;99.90;;;;;;6215916;23;20489;-64
2022/02/05 15:13:52;;;;;;;4.45;1.52;;;6.10;99.90;;;;;;6216102;23;20144;-64
2022/02/05 15:16:18;;;;;;;7.88;1.50;;;6.10;99.90;;;;;;6215780;23;20422;-63
2022/02/05 15:18:55;;;;;;;3.70;1.30;;;6.10;99.90;;;;;;6216085;23;20152;-64
2022/02/05 15:21:21;;;;;;;6.65;1.33;;;6.10;99.90;;;;;;6215726;23;20593;-63
2022/02/05 15:23:47;;;;;;;6.25;1.63;;;6.00;99.90;;;;;;6215772;23;20153;-63
2022/02/05 15:26:13;;;;;;;4.85;1.40;;;6.00;99.90;;;;;;6217322;23;20145;-64
2022/02/05 15:28:38;;;;;;;3.78;1.30;;;6.00;99.90;;;;;;6217875;23;20144;-63
2022/02/05 15:31:04;;;;;;;8.27;1.40;;;5.90;99.90;;;;;;6217243;23;20179;-63
2022/02/05 15:33:31;;;;;;;5.65;1.50;;;5.90;99.90;;;;;;6218055;23;20137;-60
2022/02/05 15:36:01;;;;;;;5.38;1.50;;;5.90;99.90;;;;;;6217886;23;20148;-62
2022/02/05 15:38:37;;;;;;;2.83;1.33;;;5.80;99.90;;;;;;6218416;23;20133;-61
2022/02/05 15:43:53;;;;;;;7.68;1.67;;;5.80;99.90;;;;;;6217555;23;20190;-60
2022/02/05 15:46:20;;;;;;;10.82;2.15;;;5.70;99.90;;;;;;6217361;23;20435;-61
2022/02/05 15:48:45;;;;;;;7.90;1.67;;;5.70;99.90;;;;;;6217771;23;20149;-61
2022/02/05 15:51:11;;;;;;;7.57;1.67;;;5.60;99.90;;;;;;6217253;23;20155;-61
2022/02/05 15:53:43;;;;;;;8.40;1.73;;;5.60;99.90;;;;;;6217649;23;20149;-60
2022/02/05 15:56:21;;;;;;;5.60;1.50;;;5.50;99.90;;;;;;6217761;23;20129;-61